Terminal Aerodrome Forecast
Issued by NWS

Current Version | Previous Version | Text Only | Print | Product List | Glossary On
Versions: 1 2 3 4 5 6 7 8 9 10 11 12
000
FTUS42 TJSJ 011100
TAFJSJ
TAF
TJSJ 011120Z 0112/0212 11008KT P6SM SCT025 SCT060
     FM011330 08012KT P6SM FEW030 SCT050
     FM011730 08015KT P6SM VCTS SCT030CB BKN050
     FM012330 11008KT P6SM SCT025=

USA.gov is the U.S. government's official web portal to all federal, state and local government web resources and services.